Prudentia — PB4900 — position and weather

sailwx.info

Track history (hours):
 
Tides and Currents Weather Stations Pressure Air Temp Water Temp Dewpoint Dewpoint Depression Visibility Wind Speed Wind Dir Waves Ship Positions

Prudentia

Last reported at 2015-Jul-04 08:28 UTC. Time now 2015-Jul-04 20:43 UTC.
Position N 51°51' E 005°51'.

Length 70 m; draft 1.8 m.

Type: Ship. MMSI: 244660779.

Date/timePositionNaut miles runAvg speedWind from/ knotsBaromVisibWave heightAir tempDewpointWater temp
2015-Jul-04 08:28N 51°51' E 005°51'0 0.0
2015-Jul-04 07:30N 51°51' E 005°51'0 0.0
2015-Jul-04 05:17N 51°51' E 005°51'0 0.0
2015-Jul-04 00:07N 51°51' E 005°51'0 0.0
2015-Jul-02 17:22N 51°51' E 005°51'7 0.8
2015-Jul-02 08:11N 51°57' E 005°58'7 3.7
2015-Jul-02 06:17N 52°00' E 006°07'4 4.5
2015-Jul-02 05:30N 52°04' E 006°09'5 0.8
2015-Jul-01 23:07N 52°09' E 006°11'3 0.5
2015-Jul-01 17:22N 52°10' E 006°16'6 7.4
2015-Jul-01 16:32N 52°10' E 006°26'12 4.1
2015-Jul-01 13:33N 52°15' E 006°44'3 3.4
2015-Jul-01 12:33N 52°15' E 006°49'1 0.0
2015-Jun-30 06:33N 52°15' E 006°48'2 2.4
2015-Jun-30 05:32N 52°15' E 006°45'11 1.1
2015-Jun-29 19:32N 52°10' E 006°28'6 6.2
2015-Jun-29 18:32N 52°10' E 006°17'3 2.3
2015-Jun-29 17:09N 52°10' E 006°12'16 5.2
2015-Jun-29 14:08N 51°57' E 005°57'3 5.2
2015-Jun-29 13:33N 51°59' E 005°53'23 4.4
2015-Jun-29 08:12N 51°58' E 005°15'3 5.1
2015-Jun-29 07:33N 51°58' E 005°10'2 1.9
2015-Jun-29 06:33N 51°60' E 005°08'0 0.0
2015-Jun-29 05:33N 51°60' E 005°08'0 0.0
2015-Jun-29 04:33N 51°60' E 005°08'0 0.0
2015-Jun-29 03:33N 51°60' E 005°08'0 0.0
2015-Jun-29 02:33N 51°60' E 005°08'0 0.0
2015-Jun-29 01:33N 51°60' E 005°08'0 0.0
2015-Jun-29 00:33N 51°60' E 005°08'0 0.0
2015-Jun-28 23:33N 51°60' E 005°08'0 0.0
2015-Jun-28 22:33N 51°60' E 005°08'0 0.0
2015-Jun-28 21:33N 51°60' E 005°08'0 0.0
2015-Jun-28 20:33N 51°60' E 005°08'0 0.0
2015-Jun-28 19:33N 51°60' E 005°08'0 0.0
2015-Jun-28 18:33N 51°60' E 005°08'4 3.6
2015-Jun-28 17:33N 51°59' E 005°02'7 5.1
2015-Jun-28 16:15N 51°56' E 004°52'4 5.7
2015-Jun-28 15:29N 51°55' E 004°46'6 6.0
2015-Jun-28 14:33N 51°53' E 004°37'6 6.0
2015-Jun-28 13:33N 51°54' E 004°27'5 5.3
2015-Jun-28 12:33N 51°52' E 004°19'7 7.2
2015-Jun-28 11:33N 51°56' E 004°10'2 2.2
2015-Jun-28 10:33N 51°57' E 004°07'0 0.0
2015-Jun-28 09:33N 51°57' E 004°07'0 0.0
2015-Jun-28 08:33N 51°57' E 004°07'0 0.0
2015-Jun-28 07:33N 51°57' E 004°07'0 0.0
2015-Jun-28 06:33N 51°57' E 004°07'0 0.0
2015-Jun-28 05:34N 51°57' E 004°07'7 6.5
2015-Jun-28 04:34N 51°53' E 004°14'6 5.8
2015-Jun-28 03:33N 51°54' E 004°23'4 3.6
2015-Jun-28 02:34N 51°54' E 004°29'0 0.0
2015-Jun-28 01:34N 51°54' E 004°29'0 0.0
2015-Jun-28 00:34N 51°54' E 004°29'0 0.0
2015-Jun-27 23:33N 51°54' E 004°29'0 0.0
2015-Jun-27 22:33N 51°54' E 004°29'0 0.0
2015-Jun-27 21:34N 51°54' E 004°29'0 0.0
2015-Jun-27 20:33N 51°54' E 004°29'0 0.0
2015-Jun-27 19:33N 51°54' E 004°29'0 0.0
2015-Jun-27 18:34N 51°54' E 004°29'0 0.0
2015-Jun-27 17:33N 51°54' E 004°29'0 0.0
2015-Jun-27 16:33N 51°54' E 004°29'0 0.0
2015-Jun-27 15:34N 51°54' E 004°29'0 0.0
2015-Jun-27 14:34N 51°54' E 004°29'0 0.0
2015-Jun-27 13:33N 51°54' E 004°29'0 0.0
2015-Jun-27 12:34N 51°54' E 004°29'0 0.0
2015-Jun-27 11:34N 51°54' E 004°29'0 0.0
2015-Jun-27 10:33N 51°54' E 004°29'0 0.0
2015-Jun-27 09:34N 51°54' E 004°29'0 0.0
2015-Jun-27 08:34N 51°54' E 004°29'2 2.0
2015-Jun-27 07:34N 51°54' E 004°32'7 6.8
2015-Jun-27 06:33N 51°49' E 004°40'7 6.6
2015-Jun-27 05:33N 51°43' E 004°37'6 6.1
2015-Jun-27 04:32N 51°42' E 004°27'2 1.9
2015-Jun-27 03:29N 51°41' E 004°24'0 0.0
2015-Jun-27 02:33N 51°41' E 004°24'0 0.0
2015-Jun-27 01:34N 51°41' E 004°24'0 0.0
2015-Jun-27 00:34N 51°41' E 004°24'0 0.0
2015-Jun-26 23:31N 51°41' E 004°24'0 0.0
2015-Jun-26 22:27N 51°41' E 004°24'0 0.0
2015-Jun-26 21:33N 51°41' E 004°24'0 0.4
2015-Jun-26 20:25N 51°41' E 004°23'7 8.1
2015-Jun-26 19:34N 51°38' E 004°13'7 7.0
2015-Jun-26 18:33N 51°31' E 004°13'4 4.3
2015-Jun-26 17:34N 51°26' E 004°14'6 5.6
2015-Jun-26 16:34N 51°21' E 004°18'8 7.6
2015-Jun-26 15:33N 51°15' E 004°24'5 5.3
2015-Jun-26 14:31N 51°14' E 004°32'6 0.2
2015-Jun-25 14:23N 51°11' E 004°41'5 6.2
2015-Jun-25 13:33N 51°13' E 004°33'3 3.3
2015-Jun-25 12:34N 51°14' E 004°28'5 5.0
2015-Jun-25 11:34N 51°16' E 004°21'7 6.5
2015-Jun-25 10:33N 51°22' E 004°18'5 5.1
2015-Jun-25 09:33N 51°27' E 004°14'3 3.1
2015-Jun-25 08:33N 51°30' E 004°13'6 6.1
2015-Jun-25 07:33N 51°36' E 004°11'6 6.2
2015-Jun-25 06:33N 51°40' E 004°20'5 4.6
2015-Jun-25 05:32N 51°42' E 004°26'7 6.6
2015-Jun-25 04:32N 51°43' E 004°37'3 2.9
2015-Jun-25 03:34N 51°46' E 004°37'0 0.0
2015-Jun-25 02:33N 51°46' E 004°37'0 0.0
2015-Jun-25 01:32N 51°46' E 004°37'0 0.0
2015-Jun-25 00:34N 51°46' E 004°37'0 0.0
2015-Jun-24 23:34N 51°46' E 004°37'0 0.0
2015-Jun-24 22:33N 51°46' E 004°37'0 0.0
2015-Jun-24 21:34N 51°46' E 004°37'0 0.0
2015-Jun-24 20:33N 51°46' E 004°37'0 0.0
2015-Jun-24 19:33N 51°46' E 004°37'3 2.9
2015-Jun-24 18:34N 51°48' E 004°36'5 5.2
2015-Jun-24 17:34N 51°50' E 004°28'5 5.3
2015-Jun-24 16:33N 51°52' E 004°20'5 5.3
2015-Jun-24 15:33N 51°54' E 004°12'4 4.5
2015-Jun-24 14:34N 51°57' E 004°07'0 0.0
2015-Jun-24 13:34N 51°57' E 004°07'0 0.0
2015-Jun-24 12:34N 51°57' E 004°07'0 0.0
2015-Jun-24 11:34N 51°57' E 004°07'0 0.0
2015-Jun-24 10:34N 51°57' E 004°07'0 0.0
2015-Jun-24 09:34N 51°57' E 004°07'0 0.3
2015-Jun-24 08:34N 51°57' E 004°07'  
Track history (hours):
 
Tides and Currents Weather Stations Pressure Air Temp Water Temp Dewpoint Dewpoint Depression Visibility Wind Speed Wind Dir Waves Ship Positions

Prudentia

Last reported at 2015-Jul-04 08:28 UTC. Time now 2015-Jul-04 20:43 UTC.
Position N 51°51' E 005°51'.

Length 70 m; draft 1.8 m.

Type: Ship. MMSI: 244660779.

Date/timePositionNaut miles runAvg speedWind from/ knotsBaromVisibWave heightAir tempDewpointWater temp
2015-Jul-04 08:28N 51°51' E 005°51'0 0.0
2015-Jul-04 07:30N 51°51' E 005°51'0 0.0
2015-Jul-04 05:17N 51°51' E 005°51'0 0.0
2015-Jul-04 00:07N 51°51' E 005°51'0 0.0
2015-Jul-02 17:22N 51°51' E 005°51'7 0.8
2015-Jul-02 08:11N 51°57' E 005°58'7 3.7
2015-Jul-02 06:17N 52°00' E 006°07'4 4.5
2015-Jul-02 05:30N 52°04' E 006°09'5 0.8
2015-Jul-01 23:07N 52°09' E 006°11'3 0.5
2015-Jul-01 17:22N 52°10' E 006°16'6 7.4
2015-Jul-01 16:32N 52°10' E 006°26'12 4.1
2015-Jul-01 13:33N 52°15' E 006°44'3 3.4
2015-Jul-01 12:33N 52°15' E 006°49'1 0.0
2015-Jun-30 06:33N 52°15' E 006°48'2 2.4
2015-Jun-30 05:32N 52°15' E 006°45'11 1.1
2015-Jun-29 19:32N 52°10' E 006°28'6 6.2
2015-Jun-29 18:32N 52°10' E 006°17'3 2.3
2015-Jun-29 17:09N 52°10' E 006°12'16 5.2
2015-Jun-29 14:08N 51°57' E 005°57'3 5.2
2015-Jun-29 13:33N 51°59' E 005°53'23 4.4
2015-Jun-29 08:12N 51°58' E 005°15'3 5.1
2015-Jun-29 07:33N 51°58' E 005°10'2 1.9
2015-Jun-29 06:33N 51°60' E 005°08'0 0.0
2015-Jun-29 05:33N 51°60' E 005°08'0 0.0
2015-Jun-29 04:33N 51°60' E 005°08'0 0.0
2015-Jun-29 03:33N 51°60' E 005°08'0 0.0
2015-Jun-29 02:33N 51°60' E 005°08'0 0.0
2015-Jun-29 01:33N 51°60' E 005°08'0 0.0
2015-Jun-29 00:33N 51°60' E 005°08'0 0.0
2015-Jun-28 23:33N 51°60' E 005°08'0 0.0
2015-Jun-28 22:33N 51°60' E 005°08'0 0.0
2015-Jun-28 21:33N 51°60' E 005°08'0 0.0
2015-Jun-28 20:33N 51°60' E 005°08'0 0.0
2015-Jun-28 19:33N 51°60' E 005°08'0 0.0
2015-Jun-28 18:33N 51°60' E 005°08'4 3.6
2015-Jun-28 17:33N 51°59' E 005°02'7 5.1
2015-Jun-28 16:15N 51°56' E 004°52'4 5.7
2015-Jun-28 15:29N 51°55' E 004°46'6 6.0
2015-Jun-28 14:33N 51°53' E 004°37'6 6.0
2015-Jun-28 13:33N 51°54' E 004°27'5 5.3
2015-Jun-28 12:33N 51°52' E 004°19'7 7.2
2015-Jun-28 11:33N 51°56' E 004°10'2 2.2
2015-Jun-28 10:33N 51°57' E 004°07'0 0.0
2015-Jun-28 09:33N 51°57' E 004°07'0 0.0
2015-Jun-28 08:33N 51°57' E 004°07'0 0.0
2015-Jun-28 07:33N 51°57' E 004°07'0 0.0
2015-Jun-28 06:33N 51°57' E 004°07'0 0.0
2015-Jun-28 05:34N 51°57' E 004°07'7 6.5
2015-Jun-28 04:34N 51°53' E 004°14'6 5.8
2015-Jun-28 03:33N 51°54' E 004°23'4 3.6
2015-Jun-28 02:34N 51°54' E 004°29'0 0.0
2015-Jun-28 01:34N 51°54' E 004°29'0 0.0
2015-Jun-28 00:34N 51°54' E 004°29'0 0.0
2015-Jun-27 23:33N 51°54' E 004°29'0 0.0
2015-Jun-27 22:33N 51°54' E 004°29'0 0.0
2015-Jun-27 21:34N 51°54' E 004°29'0 0.0
2015-Jun-27 20:33N 51°54' E 004°29'0 0.0
2015-Jun-27 19:33N 51°54' E 004°29'0 0.0
2015-Jun-27 18:34N 51°54' E 004°29'0 0.0
2015-Jun-27 17:33N 51°54' E 004°29'0 0.0
2015-Jun-27 16:33N 51°54' E 004°29'0 0.0
2015-Jun-27 15:34N 51°54' E 004°29'0 0.0
2015-Jun-27 14:34N 51°54' E 004°29'0 0.0
2015-Jun-27 13:33N 51°54' E 004°29'0 0.0
2015-Jun-27 12:34N 51°54' E 004°29'0 0.0
2015-Jun-27 11:34N 51°54' E 004°29'0 0.0
2015-Jun-27 10:33N 51°54' E 004°29'0 0.0
2015-Jun-27 09:34N 51°54' E 004°29'0 0.0
2015-Jun-27 08:34N 51°54' E 004°29'2 2.0
2015-Jun-27 07:34N 51°54' E 004°32'7 6.8
2015-Jun-27 06:33N 51°49' E 004°40'7 6.6
2015-Jun-27 05:33N 51°43' E 004°37'6 6.1
2015-Jun-27 04:32N 51°42' E 004°27'2 1.9
2015-Jun-27 03:29N 51°41' E 004°24'0 0.0
2015-Jun-27 02:33N 51°41' E 004°24'0 0.0
2015-Jun-27 01:34N 51°41' E 004°24'0 0.0
2015-Jun-27 00:34N 51°41' E 004°24'0 0.0
2015-Jun-26 23:31N 51°41' E 004°24'0 0.0
2015-Jun-26 22:27N 51°41' E 004°24'0 0.0
2015-Jun-26 21:33N 51°41' E 004°24'0 0.4
2015-Jun-26 20:25N 51°41' E 004°23'7 8.1
2015-Jun-26 19:34N 51°38' E 004°13'7 7.0
2015-Jun-26 18:33N 51°31' E 004°13'4 4.3
2015-Jun-26 17:34N 51°26' E 004°14'6 5.6
2015-Jun-26 16:34N 51°21' E 004°18'8 7.6
2015-Jun-26 15:33N 51°15' E 004°24'5 5.3
2015-Jun-26 14:31N 51°14' E 004°32'6 0.2
2015-Jun-25 14:23N 51°11' E 004°41'5 6.2
2015-Jun-25 13:33N 51°13' E 004°33'3 3.3
2015-Jun-25 12:34N 51°14' E 004°28'5 5.0
2015-Jun-25 11:34N 51°16' E 004°21'7 6.5
2015-Jun-25 10:33N 51°22' E 004°18'5 5.1
2015-Jun-25 09:33N 51°27' E 004°14'3 3.1
2015-Jun-25 08:33N 51°30' E 004°13'6 6.1
2015-Jun-25 07:33N 51°36' E 004°11'6 6.2
2015-Jun-25 06:33N 51°40' E 004°20'5 4.6
2015-Jun-25 05:32N 51°42' E 004°26'7 6.6
2015-Jun-25 04:32N 51°43' E 004°37'3 2.9
2015-Jun-25 03:34N 51°46' E 004°37'0 0.0
2015-Jun-25 02:33N 51°46' E 004°37'0 0.0
2015-Jun-25 01:32N 51°46' E 004°37'0 0.0
2015-Jun-25 00:34N 51°46' E 004°37'0 0.0
2015-Jun-24 23:34N 51°46' E 004°37'0 0.0
2015-Jun-24 22:33N 51°46' E 004°37'0 0.0
2015-Jun-24 21:34N 51°46' E 004°37'0 0.0
2015-Jun-24 20:33N 51°46' E 004°37'0 0.0
2015-Jun-24 19:33N 51°46' E 004°37'3 2.9
2015-Jun-24 18:34N 51°48' E 004°36'5 5.2
2015-Jun-24 17:34N 51°50' E 004°28'5 5.3
2015-Jun-24 16:33N 51°52' E 004°20'5 5.3
2015-Jun-24 15:33N 51°54' E 004°12'4 4.5
2015-Jun-24 14:34N 51°57' E 004°07'0 0.0
2015-Jun-24 13:34N 51°57' E 004°07'0 0.0
2015-Jun-24 12:34N 51°57' E 004°07'0 0.0
2015-Jun-24 11:34N 51°57' E 004°07'0 0.0
2015-Jun-24 10:34N 51°57' E 004°07'0 0.0
2015-Jun-24 09:34N 51°57' E 004°07'0 0.3
2015-Jun-24 08:34N 51°57' E 004°07'  

Dump ship's entire track history